createdAt,value
2022-08-24T00:04:56.703Z,1.80
2022-08-24T00:10:01.002Z,1.65
2022-08-24T00:15:05.802Z,1.70
2022-08-24T00:20:11.378Z,1.80
2022-08-24T00:25:17.306Z,1.70
2022-08-24T00:30:21.633Z,1.60
2022-08-24T00:35:24.945Z,1.58
2022-08-24T00:40:44.229Z,1.42
2022-08-24T00:45:52.727Z,1.60
2022-08-24T00:50:59.662Z,1.50
2022-08-24T00:56:07.886Z,1.52
2022-08-24T01:01:13.817Z,1.35
2022-08-24T01:06:16.957Z,1.50
2022-08-24T01:11:24.897Z,1.73
2022-08-24T01:16:45.091Z,1.50
2022-08-24T01:21:54.263Z,1.63
2022-08-24T01:26:59.649Z,1.40
2022-08-24T01:32:02.507Z,1.35
2022-08-24T01:37:08.639Z,1.50
2022-08-24T01:42:14.353Z,1.60
2022-08-24T01:47:18.353Z,1.55
2022-08-24T01:52:23.751Z,1.60
2022-08-24T01:57:28.328Z,1.80
2022-08-24T02:02:32.846Z,1.73
2022-08-24T02:07:35.674Z,1.67
2022-08-24T02:12:42.494Z,1.80
2022-08-24T02:17:45.311Z,1.77
2022-08-24T02:22:48.677Z,1.90
2022-08-24T02:27:53.867Z,1.58
2022-08-24T02:32:56.654Z,1.50
2022-08-24T02:37:59.870Z,1.50
2022-08-24T02:43:04.547Z,1.40
2022-08-24T02:48:07.523Z,1.25
2022-08-24T02:53:10.472Z,1.50
2022-08-24T02:58:15.783Z,1.60
2022-08-24T03:03:18.597Z,1.60
2022-08-24T03:08:21.410Z,1.60
2022-08-24T03:13:26.642Z,2.00
2022-08-24T03:18:29.570Z,1.55
2022-08-24T03:23:34.705Z,1.60
2022-08-24T03:28:39.416Z,1.90
2022-08-24T03:33:42.251Z,1.58
2022-08-24T03:38:45.311Z,1.83
2022-08-24T03:43:49.764Z,1.60
2022-08-24T03:48:52.568Z,1.73
2022-08-24T03:53:58.573Z,1.65
2022-08-24T03:59:02.745Z,1.60
2022-08-24T04:04:06.522Z,2.17
2022-08-24T04:09:09.362Z,1.80
2022-08-24T04:14:23.680Z,1.60
2022-08-24T04:19:30.452Z,1.80
2022-08-24T04:24:33.217Z,2.10
2022-08-24T04:29:37.376Z,2.40
2022-08-24T04:34:40.153Z,2.30
2022-08-24T04:39:43.219Z,2.35
2022-08-24T04:44:47.433Z,2.30
2022-08-24T04:49:50.185Z,1.90
2022-08-24T04:54:52.957Z,2.13
2022-08-24T04:59:59.164Z,1.92
2022-08-24T05:05:02.084Z,2.13
2022-08-24T05:10:07.487Z,2.28
2022-08-24T05:15:13.542Z,2.20
2022-08-24T05:20:16.325Z,2.28
2022-08-24T05:25:19.346Z,2.05
2022-08-24T05:30:23.567Z,2.40
2022-08-24T05:35:26.389Z,2.10
2022-08-24T05:40:33.255Z,2.35
2022-08-24T05:45:37.698Z,2.55
2022-08-24T05:50:40.490Z,2.23
2022-08-24T05:55:43.296Z,2.78
2022-08-24T06:00:49.610Z,1.90
2022-08-24T06:05:53.095Z,2.20
2022-08-24T06:10:55.925Z,1.90
2022-08-24T06:16:21.551Z,1.98
2022-08-24T06:21:28.453Z,2.05
2022-08-24T06:26:50.278Z,2.60
2022-08-24T06:31:56.127Z,2.30
2022-08-24T06:36:59.108Z,2.55
2022-08-24T06:42:01.956Z,2.20
2022-08-24T06:47:06.552Z,2.45
2022-08-24T06:52:10.981Z,2.33
2022-08-24T06:57:13.779Z,2.35
2022-08-24T07:02:19.406Z,2.35
2022-08-24T07:07:22.223Z,2.33
2022-08-24T07:12:25.426Z,2.30
2022-08-24T07:17:29.864Z,2.50
2022-08-24T07:22:32.651Z,2.45
2022-08-24T07:27:35.466Z,2.13
2022-08-24T07:32:39.637Z,2.58
2022-08-24T07:37:42.574Z,2.20
2022-08-24T07:42:49.024Z,2.35
2022-08-24T07:47:55.858Z,2.65
2022-08-24T07:52:58.974Z,2.78
2022-08-24T07:58:02.092Z,2.22
2022-08-24T08:03:06.531Z,2.33
2022-08-24T08:08:09.558Z,2.22
2022-08-24T08:13:12.367Z,2.38
2022-08-24T08:18:17.038Z,2.30
2022-08-24T08:23:37.631Z,2.20
2022-08-24T08:28:42.627Z,2.47
2022-08-24T08:33:47.004Z,2.22
2022-08-24T08:38:51.038Z,2.30
2022-08-24T08:44:01.980Z,2.13
2022-08-24T08:49:35.534Z,2.10
2022-08-24T08:54:56.354Z,2.42
2022-08-24T09:00:17.737Z,2.35
2022-08-24T09:05:48.622Z,2.40
2022-08-24T09:10:58.041Z,2.13
2022-08-24T09:16:22.645Z,2.25
2022-08-24T09:26:57.158Z,2.45
2022-08-24T09:32:23.190Z,2.15
2022-08-24T09:37:35.371Z,2.10
2022-08-24T09:43:06.222Z,2.22
2022-08-24T09:48:53.263Z,2.28
2022-08-24T09:54:28.644Z,2.10
2022-08-24T09:59:58.094Z,2.10
2022-08-24T10:05:10.670Z,2.30
2022-08-24T10:10:28.494Z,2.40
2022-08-24T10:15:42.282Z,2.40
2022-08-24T10:21:00.250Z,2.30
2022-08-24T10:26:09.382Z,2.50
2022-08-24T10:31:19.994Z,2.63
2022-08-24T10:36:57.220Z,2.60
2022-08-24T10:42:51.847Z,2.55
2022-08-24T10:48:13.554Z,2.90
2022-08-24T10:53:24.088Z,2.90
2022-08-24T10:58:50.909Z,2.53
2022-08-24T11:03:59.901Z,2.25
2022-08-24T11:09:08.445Z,2.38
2022-08-24T11:14:25.673Z,2.63
2022-08-24T11:19:35.288Z,2.60
2022-08-24T11:24:44.834Z,2.22
2022-08-24T11:30:06.470Z,2.67
2022-08-24T11:35:21.053Z,2.10
2022-08-24T11:40:29.213Z,2.10
2022-08-24T11:45:37.865Z,1.80
2022-08-24T11:50:49.425Z,1.95
2022-08-24T11:56:00.367Z,2.10
2022-08-24T12:01:10.085Z,1.75
2022-08-24T12:06:24.600Z,1.80
2022-08-24T12:11:41.836Z,1.90
2022-08-24T12:16:52.937Z,2.13
2022-08-24T12:22:00.460Z,2.00
2022-08-24T12:27:07.885Z,1.90
2022-08-24T12:32:16.101Z,2.00
2022-08-24T12:37:25.211Z,1.60
2022-08-24T12:42:35.080Z,1.92
2022-08-24T12:47:46.700Z,1.80
2022-08-24T12:53:19.384Z,1.50
2022-08-24T12:58:54.403Z,1.52
2022-08-24T13:09:18.107Z,1.60
2022-08-24T13:14:23.362Z,1.80
2022-08-24T13:19:36.413Z,1.60
2022-08-24T13:24:44.741Z,1.80
2022-08-24T13:29:55.468Z,1.40
2022-08-24T13:34:59.710Z,1.50
2022-08-24T13:40:14.925Z,1.65
2022-08-24T13:45:34.146Z,1.88
2022-08-24T13:50:47.586Z,1.50
2022-08-24T13:55:53.625Z,1.52
2022-08-24T14:01:03.835Z,1.63
2022-08-24T14:06:23.003Z,1.75
2022-08-24T14:11:45.562Z,1.50
2022-08-24T14:17:21.683Z,1.52
2022-08-24T14:22:35.135Z,1.50
2022-08-24T14:27:42.541Z,1.60
2022-08-24T14:33:04.152Z,1.40
2022-08-24T14:38:23.445Z,1.77
2022-08-24T14:43:35.702Z,1.70
2022-08-24T14:48:48.740Z,1.90
2022-08-24T14:54:02.115Z,1.77
2022-08-24T14:59:13.061Z,1.63
2022-08-24T15:04:43.849Z,1.20
2022-08-24T15:09:47.013Z,1.30
2022-08-24T15:14:55.734Z,1.20
2022-08-24T15:20:04.349Z,1.40
2022-08-24T15:25:12.566Z,1.50
2022-08-24T15:30:27.317Z,1.30
2022-08-24T15:35:33.039Z,1.50
2022-08-24T15:40:35.857Z,1.52
2022-08-24T15:45:49.681Z,1.30
2022-08-24T15:50:55.816Z,1.50
2022-08-24T15:55:58.982Z,1.58
2022-08-24T16:01:39.579Z,1.40
2022-08-24T16:06:45.260Z,1.42
2022-08-24T16:11:59.424Z,1.65
2022-08-24T16:17:31.301Z,1.50
2022-08-24T16:22:37.845Z,1.67
2022-08-24T16:27:56.667Z,1.52
2022-08-24T16:33:05.946Z,1.67
2022-08-24T16:38:08.993Z,1.50
2022-08-24T16:43:11.841Z,1.90
2022-08-24T16:48:16.247Z,1.63
2022-08-24T16:53:19.087Z,1.70
2022-08-24T16:58:24.086Z,1.52
2022-08-24T17:03:28.982Z,1.58
2022-08-24T17:08:32.069Z,2.08
2022-08-24T17:13:50.818Z,1.80
2022-08-24T17:18:55.316Z,1.58
2022-08-24T17:23:58.093Z,1.70
2022-08-24T17:29:04.375Z,1.60
2022-08-24T17:34:09.159Z,2.00
2022-08-24T17:39:13.689Z,1.88
2022-08-24T17:44:23.665Z,1.67
2022-08-24T17:49:28.433Z,1.75
2022-08-24T17:54:31.239Z,1.63
2022-08-24T17:59:36.242Z,1.63
2022-08-24T18:04:41.318Z,1.75
2022-08-24T18:09:48.049Z,1.85
2022-08-24T18:14:51.462Z,1.83
2022-08-24T18:19:55.777Z,1.98
2022-08-24T18:24:58.565Z,1.98
2022-08-24T18:30:06.183Z,2.10
2022-08-24T18:35:10.486Z,2.38
2022-08-24T18:40:20.409Z,2.70
2022-08-24T18:45:27.514Z,2.22
2022-08-24T18:50:37.714Z,1.88
2022-08-24T18:55:46.108Z,2.13
2022-08-24T19:00:51.141Z,2.10
2022-08-24T19:05:56.429Z,1.88
2022-08-24T19:10:59.232Z,1.90
2022-08-24T19:16:02.313Z,1.83
2022-08-24T19:21:06.765Z,2.13
2022-08-24T19:26:09.546Z,2.05
2022-08-24T19:31:14.670Z,2.10
2022-08-24T19:36:19.605Z,1.90
2022-08-24T19:41:22.837Z,2.88
2022-08-24T19:46:38.622Z,2.65
2022-08-24T19:51:42.870Z,2.17
2022-08-24T20:01:48.569Z,2.45
2022-08-24T20:06:53.299Z,2.22
2022-08-24T20:11:56.046Z,2.40
2022-08-24T20:16:59.384Z,2.97
2022-08-24T20:22:03.541Z,2.20
2022-08-24T20:27:21.532Z,2.47
2022-08-24T20:32:24.348Z,2.40
2022-08-24T20:37:31.270Z,2.60
2022-08-24T20:42:34.070Z,2.80
2022-08-24T20:47:48.462Z,2.35
2022-08-24T20:52:53.984Z,2.40
2022-08-24T20:58:00.669Z,3.22
2022-08-24T21:03:03.591Z,7.72
2022-08-24T21:08:08.331Z,4.45
2022-08-24T21:13:11.477Z,2.92
2022-08-24T21:18:14.697Z,3.22
2022-08-24T21:23:18.812Z,2.70
2022-08-24T21:28:22.331Z,3.00
2022-08-24T21:33:41.839Z,2.70
2022-08-24T21:38:46.002Z,2.78
2022-08-24T21:43:48.805Z,3.20
2022-08-24T21:48:51.623Z,2.50
2022-08-24T21:53:59.675Z,2.03
2022-08-24T21:59:02.832Z,2.45
2022-08-24T22:04:05.983Z,2.20
2022-08-24T22:09:10.361Z,2.55
2022-08-24T22:14:15.178Z,2.40
2022-08-24T22:19:18.018Z,2.28
2022-08-24T22:24:22.141Z,2.30
2022-08-24T22:29:25.122Z,2.15
2022-08-24T22:34:27.912Z,2.10
2022-08-24T22:39:32.601Z,2.30
2022-08-24T22:44:36.338Z,2.30
2022-08-24T22:49:41.406Z,2.73
2022-08-24T22:54:45.582Z,2.65
2022-08-24T22:59:48.395Z,2.30
2022-08-24T23:04:52.820Z,2.33
2022-08-24T23:09:57.071Z,2.35
2022-08-24T23:15:00.065Z,2.28
2022-08-24T23:20:06.110Z,2.50
2022-08-24T23:25:12.785Z,2.60
2022-08-24T23:30:15.763Z,2.20
2022-08-24T23:35:18.578Z,2.28
2022-08-24T23:40:22.830Z,2.40
2022-08-24T23:45:28.262Z,2.20
2022-08-24T23:50:31.635Z,2.40
2022-08-24T23:55:36.117Z,2.20
